sensor_id;sensor_type;location;lat;lon;timestamp;temperature;humidity
39021;DHT22;25188;51.958;5.842;2023-09-18T00:01:49;19.80;99.90
39021;DHT22;25188;51.958;5.842;2023-09-18T00:04:14;19.80;99.90
39021;DHT22;25188;51.958;5.842;2023-09-18T00:06:40;19.80;99.90
39021;DHT22;25188;51.958;5.842;2023-09-18T00:09:06;19.80;99.90
39021;DHT22;25188;51.958;5.842;2023-09-18T00:11:37;19.80;99.90
39021;DHT22;25188;51.958;5.842;2023-09-18T00:14:03;19.80;99.90
39021;DHT22;25188;51.958;5.842;2023-09-18T00:16:29;19.80;99.90
39021;DHT22;25188;51.958;5.842;2023-09-18T00:18:54;19.80;99.90
39021;DHT22;25188;51.958;5.842;2023-09-18T00:21:20;19.80;99.90
39021;DHT22;25188;51.958;5.842;2023-09-18T00:23:46;19.80;99.90
39021;DHT22;25188;51.958;5.842;2023-09-18T00:26:12;19.80;99.90
39021;DHT22;25188;51.958;5.842;2023-09-18T00:28:37;19.80;99.90
39021;DHT22;25188;51.958;5.842;2023-09-18T00:31:03;19.80;99.90
39021;DHT22;25188;51.958;5.842;2023-09-18T00:33:28;19.90;99.90
39021;DHT22;25188;51.958;5.842;2023-09-18T00:35:54;19.80;99.90
39021;DHT22;25188;51.958;5.842;2023-09-18T00:38:20;19.80;99.90
39021;DHT22;25188;51.958;5.842;2023-09-18T00:40:46;19.80;99.90
39021;DHT22;25188;51.958;5.842;2023-09-18T00:43:12;19.80;99.90
39021;DHT22;25188;51.958;5.842;2023-09-18T00:45:44;19.70;99.90
39021;DHT22;25188;51.958;5.842;2023-09-18T00:48:11;19.80;99.90
39021;DHT22;25188;51.958;5.842;2023-09-18T00:50:37;19.80;99.90
39021;DHT22;25188;51.958;5.842;2023-09-18T00:53:04;19.80;99.90
39021;DHT22;25188;51.958;5.842;2023-09-18T00:55:30;19.80;99.90
39021;DHT22;25188;51.958;5.842;2023-09-18T00:57:56;19.80;99.90
39021;DHT22;25188;51.958;5.842;2023-09-18T01:00:22;19.80;99.90
39021;DHT22;25188;51.958;5.842;2023-09-18T01:02:48;19.80;99.90
39021;DHT22;25188;51.958;5.842;2023-09-18T01:05:14;19.90;99.90
39021;DHT22;25188;51.958;5.842;2023-09-18T01:07:42;19.80;99.90
39021;DHT22;25188;51.958;5.842;2023-09-18T01:10:08;19.80;99.90
39021;DHT22;25188;51.958;5.842;2023-09-18T01:12:46;19.80;99.90
39021;DHT22;25188;51.958;5.842;2023-09-18T01:15:29;19.80;99.90
39021;DHT22;25188;51.958;5.842;2023-09-18T01:17:55;19.80;99.90
39021;DHT22;25188;51.958;5.842;2023-09-18T01:20:21;19.80;99.90
39021;DHT22;25188;51.958;5.842;2023-09-18T01:22:47;19.80;99.90
39021;DHT22;25188;51.958;5.842;2023-09-18T01:25:15;19.80;99.90
39021;DHT22;25188;51.958;5.842;2023-09-18T01:27:41;19.80;99.90
39021;DHT22;25188;51.958;5.842;2023-09-18T01:30:07;19.70;99.90
39021;DHT22;25188;51.958;5.842;2023-09-18T01:32:35;19.80;99.90
39021;DHT22;25188;51.958;5.842;2023-09-18T01:35:04;19.80;99.90
39021;DHT22;25188;51.958;5.842;2023-09-18T01:37:33;19.80;99.90
39021;DHT22;25188;51.958;5.842;2023-09-18T01:40:01;19.80;99.90
39021;DHT22;25188;51.958;5.842;2023-09-18T01:42:32;19.80;99.90
39021;DHT22;25188;51.958;5.842;2023-09-18T01:44:58;19.80;99.90
39021;DHT22;25188;51.958;5.842;2023-09-18T01:47:24;19.80;99.90
39021;DHT22;25188;51.958;5.842;2023-09-18T01:49:50;19.70;99.90
39021;DHT22;25188;51.958;5.842;2023-09-18T01:52:16;19.80;99.90
39021;DHT22;25188;51.958;5.842;2023-09-18T01:54:41;19.80;99.90
39021;DHT22;25188;51.958;5.842;2023-09-18T01:57:07;19.90;99.90
39021;DHT22;25188;51.958;5.842;2023-09-18T01:59:33;19.90;99.90
39021;DHT22;25188;51.958;5.842;2023-09-18T02:01:59;19.80;99.90
39021;DHT22;25188;51.958;5.842;2023-09-18T02:04:25;19.90;99.90
39021;DHT22;25188;51.958;5.842;2023-09-18T02:06:53;19.80;99.90
39021;DHT22;25188;51.958;5.842;2023-09-18T02:09:19;19.80;99.90
39021;DHT22;25188;51.958;5.842;2023-09-18T02:11:46;19.80;99.90
39021;DHT22;25188;51.958;5.842;2023-09-18T02:14:12;19.90;99.90
39021;DHT22;25188;51.958;5.842;2023-09-18T02:16:40;19.80;99.90
39021;DHT22;25188;51.958;5.842;2023-09-18T02:19:11;19.90;99.90
39021;DHT22;25188;51.958;5.842;2023-09-18T02:21:37;19.90;99.90
39021;DHT22;25188;51.958;5.842;2023-09-18T02:24:03;19.80;99.90
39021;DHT22;25188;51.958;5.842;2023-09-18T02:26:29;19.90;99.90
39021;DHT22;25188;51.958;5.842;2023-09-18T02:28:57;19.80;99.90
39021;DHT22;25188;51.958;5.842;2023-09-18T02:31:23;19.80;99.90
39021;DHT22;25188;51.958;5.842;2023-09-18T02:33:49;19.80;99.90
39021;DHT22;25188;51.958;5.842;2023-09-18T02:36:14;19.90;99.90
39021;DHT22;25188;51.958;5.842;2023-09-18T02:38:40;19.80;99.90
39021;DHT22;25188;51.958;5.842;2023-09-18T02:41:06;19.80;99.90
39021;DHT22;25188;51.958;5.842;2023-09-18T02:43:32;19.80;99.90
39021;DHT22;25188;51.958;5.842;2023-09-18T02:45:57;19.80;99.90
39021;DHT22;25188;51.958;5.842;2023-09-18T02:48:23;19.80;99.90
39021;DHT22;25188;51.958;5.842;2023-09-18T02:50:48;19.80;99.90
39021;DHT22;25188;51.958;5.842;2023-09-18T02:53:19;19.90;99.90
39021;DHT22;25188;51.958;5.842;2023-09-18T02:55:46;19.90;99.90
39021;DHT22;25188;51.958;5.842;2023-09-18T02:58:11;19.90;99.90
39021;DHT22;25188;51.958;5.842;2023-09-18T03:00:44;19.90;99.90
39021;DHT22;25188;51.958;5.842;2023-09-18T03:03:10;19.90;99.90
39021;DHT22;25188;51.958;5.842;2023-09-18T03:05:37;19.80;99.90
39021;DHT22;25188;51.958;5.842;2023-09-18T03:08:03;19.90;99.90
39021;DHT22;25188;51.958;5.842;2023-09-18T03:10:36;19.90;99.90
39021;DHT22;25188;51.958;5.842;2023-09-18T03:13:04;19.90;99.90
39021;DHT22;25188;51.958;5.842;2023-09-18T03:15:30;19.90;99.90
39021;DHT22;25188;51.958;5.842;2023-09-18T03:17:57;19.90;99.90
39021;DHT22;25188;51.958;5.842;2023-09-18T03:20:26;20.00;99.90
39021;DHT22;25188;51.958;5.842;2023-09-18T03:22:55;19.90;99.90
39021;DHT22;25188;51.958;5.842;2023-09-18T03:25:21;19.90;99.90
39021;DHT22;25188;51.958;5.842;2023-09-18T03:27:47;19.90;99.90
39021;DHT22;25188;51.958;5.842;2023-09-18T03:30:13;19.90;99.90
39021;DHT22;25188;51.958;5.842;2023-09-18T03:32:41;19.90;99.90
39021;DHT22;25188;51.958;5.842;2023-09-18T03:35:09;19.90;99.90
39021;DHT22;25188;51.958;5.842;2023-09-18T03:37:41;19.80;99.90
39021;DHT22;25188;51.958;5.842;2023-09-18T03:40:08;19.90;99.90
39021;DHT22;25188;51.958;5.842;2023-09-18T03:42:34;19.90;99.90
39021;DHT22;25188;51.958;5.842;2023-09-18T03:44:59;20.00;99.90
39021;DHT22;25188;51.958;5.842;2023-09-18T03:47:25;20.00;99.90
39021;DHT22;25188;51.958;5.842;2023-09-18T03:49:51;20.00;99.90
39021;DHT22;25188;51.958;5.842;2023-09-18T03:52:16;20.00;99.90
39021;DHT22;25188;51.958;5.842;2023-09-18T03:54:42;20.00;99.90
39021;DHT22;25188;51.958;5.842;2023-09-18T03:57:07;20.00;99.90
39021;DHT22;25188;51.958;5.842;2023-09-18T03:59:33;20.10;99.90
39021;DHT22;25188;51.958;5.842;2023-09-18T04:01:59;19.90;99.90
39021;DHT22;25188;51.958;5.842;2023-09-18T04:04:24;20.00;99.90
39021;DHT22;25188;51.958;5.842;2023-09-18T04:06:50;20.10;99.90
39021;DHT22;25188;51.958;5.842;2023-09-18T04:09:15;20.00;99.90
39021;DHT22;25188;51.958;5.842;2023-09-18T04:11:41;20.00;99.90
39021;DHT22;25188;51.958;5.842;2023-09-18T04:14:07;20.10;99.90
39021;DHT22;25188;51.958;5.842;2023-09-18T04:16:32;20.00;99.90
39021;DHT22;25188;51.958;5.842;2023-09-18T04:19:01;20.10;99.90
39021;DHT22;25188;51.958;5.842;2023-09-18T04:21:27;20.00;99.90
39021;DHT22;25188;51.958;5.842;2023-09-18T04:23:55;20.20;99.90
39021;DHT22;25188;51.958;5.842;2023-09-18T04:26:23;20.00;99.90
39021;DHT22;25188;51.958;5.842;2023-09-18T04:28:49;20.00;99.90
39021;DHT22;25188;51.958;5.842;2023-09-18T04:31:16;20.10;99.90
39021;DHT22;25188;51.958;5.842;2023-09-18T04:33:41;20.00;99.90
39021;DHT22;25188;51.958;5.842;2023-09-18T04:36:07;20.00;99.90
39021;DHT22;25188;51.958;5.842;2023-09-18T04:38:33;20.10;99.90
39021;DHT22;25188;51.958;5.842;2023-09-18T04:41:01;20.10;99.90
39021;DHT22;25188;51.958;5.842;2023-09-18T04:43:27;20.00;99.90
39021;DHT22;25188;51.958;5.842;2023-09-18T04:45:55;20.10;99.90
39021;DHT22;25188;51.958;5.842;2023-09-18T04:48:21;20.10;99.90
39021;DHT22;25188;51.958;5.842;2023-09-18T04:50:46;20.10;99.90
39021;DHT22;25188;51.958;5.842;2023-09-18T04:53:13;20.10;99.90
39021;DHT22;25188;51.958;5.842;2023-09-18T04:55:39;20.10;99.90
39021;DHT22;25188;51.958;5.842;2023-09-18T04:58:04;20.10;99.90
39021;DHT22;25188;51.958;5.842;2023-09-18T05:00:30;20.20;99.90
39021;DHT22;25188;51.958;5.842;2023-09-18T05:02:57;20.10;99.90
39021;DHT22;25188;51.958;5.842;2023-09-18T05:05:25;20.20;99.90
39021;DHT22;25188;51.958;5.842;2023-09-18T05:07:51;20.20;99.90
39021;DHT22;25188;51.958;5.842;2023-09-18T05:10:16;20.10;99.90
39021;DHT22;25188;51.958;5.842;2023-09-18T05:12:42;20.20;99.90
39021;DHT22;25188;51.958;5.842;2023-09-18T05:15:08;20.20;99.90
39021;DHT22;25188;51.958;5.842;2023-09-18T05:17:46;20.20;99.90
39021;DHT22;25188;51.958;5.842;2023-09-18T05:20:13;20.20;99.90
39021;DHT22;25188;51.958;5.842;2023-09-18T05:22:41;20.20;99.90
39021;DHT22;25188;51.958;5.842;2023-09-18T05:25:08;20.20;99.90
39021;DHT22;25188;51.958;5.842;2023-09-18T05:27:35;20.20;99.90
39021;DHT22;25188;51.958;5.842;2023-09-18T05:30:02;20.10;99.90
39021;DHT22;25188;51.958;5.842;2023-09-18T05:32:28;20.20;99.90
39021;DHT22;25188;51.958;5.842;2023-09-18T05:34:53;20.10;99.90
39021;DHT22;25188;51.958;5.842;2023-09-18T05:37:19;20.10;99.90
39021;DHT22;25188;51.958;5.842;2023-09-18T05:39:44;20.10;99.90
39021;DHT22;25188;51.958;5.842;2023-09-18T05:42:10;20.10;99.90
39021;DHT22;25188;51.958;5.842;2023-09-18T05:44:35;20.10;99.90
39021;DHT22;25188;51.958;5.842;2023-09-18T05:47:04;20.10;99.90
39021;DHT22;25188;51.958;5.842;2023-09-18T05:49:30;20.10;99.90
39021;DHT22;25188;51.958;5.842;2023-09-18T05:51:55;20.10;99.90
39021;DHT22;25188;51.958;5.842;2023-09-18T05:54:21;20.10;99.90
39021;DHT22;25188;51.958;5.842;2023-09-18T05:56:47;20.10;99.90
39021;DHT22;25188;51.958;5.842;2023-09-18T05:59:13;20.10;99.90
39021;DHT22;25188;51.958;5.842;2023-09-18T06:01:41;20.00;99.90
39021;DHT22;25188;51.958;5.842;2023-09-18T06:04:06;20.10;99.90
39021;DHT22;25188;51.958;5.842;2023-09-18T06:06:32;20.20;99.90
39021;DHT22;25188;51.958;5.842;2023-09-18T06:08:57;20.10;99.90
39021;DHT22;25188;51.958;5.842;2023-09-18T06:11:23;20.10;99.90
39021;DHT22;25188;51.958;5.842;2023-09-18T06:13:49;20.10;99.90
39021;DHT22;25188;51.958;5.842;2023-09-18T06:16:14;20.10;99.90
39021;DHT22;25188;51.958;5.842;2023-09-18T06:18:40;20.10;99.90
39021;DHT22;25188;51.958;5.842;2023-09-18T06:21:06;20.00;99.90
39021;DHT22;25188;51.958;5.842;2023-09-18T06:23:31;20.20;99.90
39021;DHT22;25188;51.958;5.842;2023-09-18T06:25:57;20.20;99.90
39021;DHT22;25188;51.958;5.842;2023-09-18T06:28:24;20.10;99.90
39021;DHT22;25188;51.958;5.842;2023-09-18T06:30:50;20.20;99.90
39021;DHT22;25188;51.958;5.842;2023-09-18T06:33:16;20.20;99.90
39021;DHT22;25188;51.958;5.842;2023-09-18T06:35:42;20.30;99.90
39021;DHT22;25188;51.958;5.842;2023-09-18T06:38:07;20.30;99.90
39021;DHT22;25188;51.958;5.842;2023-09-18T06:40:35;20.30;99.90
39021;DHT22;25188;51.958;5.842;2023-09-18T06:43:01;20.30;99.90
39021;DHT22;25188;51.958;5.842;2023-09-18T06:45:27;20.30;99.90
39021;DHT22;25188;51.958;5.842;2023-09-18T06:47:53;20.40;99.90
39021;DHT22;25188;51.958;5.842;2023-09-18T06:50:19;20.30;99.90
39021;DHT22;25188;51.958;5.842;2023-09-18T06:52:45;20.40;99.90
39021;DHT22;25188;51.958;5.842;2023-09-18T06:55:12;20.40;99.90
39021;DHT22;25188;51.958;5.842;2023-09-18T06:57:37;20.50;99.90
39021;DHT22;25188;51.958;5.842;2023-09-18T07:00:04;20.40;99.90
39021;DHT22;25188;51.958;5.842;2023-09-18T07:02:30;20.40;99.90
39021;DHT22;25188;51.958;5.842;2023-09-18T07:04:56;20.50;99.90
39021;DHT22;25188;51.958;5.842;2023-09-18T07:07:21;20.50;99.90
39021;DHT22;25188;51.958;5.842;2023-09-18T07:09:51;20.50;99.90
39021;DHT22;25188;51.958;5.842;2023-09-18T07:12:16;20.60;99.90
39021;DHT22;25188;51.958;5.842;2023-09-18T07:14:48;20.60;99.90
39021;DHT22;25188;51.958;5.842;2023-09-18T07:17:13;20.60;99.90
39021;DHT22;25188;51.958;5.842;2023-09-18T07:19:39;20.70;99.90
39021;DHT22;25188;51.958;5.842;2023-09-18T07:22:05;20.70;99.90
39021;DHT22;25188;51.958;5.842;2023-09-18T07:24:30;20.70;99.90
39021;DHT22;25188;51.958;5.842;2023-09-18T07:26:56;20.80;99.90
39021;DHT22;25188;51.958;5.842;2023-09-18T07:29:23;20.80;99.90
39021;DHT22;25188;51.958;5.842;2023-09-18T07:31:50;20.80;99.90
39021;DHT22;25188;51.958;5.842;2023-09-18T07:34:16;20.90;99.90
39021;DHT22;25188;51.958;5.842;2023-09-18T07:36:43;20.80;99.90
39021;DHT22;25188;51.958;5.842;2023-09-18T07:39:09;20.90;99.90
39021;DHT22;25188;51.958;5.842;2023-09-18T07:41:37;20.80;99.90
39021;DHT22;25188;51.958;5.842;2023-09-18T07:44:02;20.80;99.90
39021;DHT22;25188;51.958;5.842;2023-09-18T07:46:28;20.90;99.90
39021;DHT22;25188;51.958;5.842;2023-09-18T07:48:54;21.00;99.90
39021;DHT22;25188;51.958;5.842;2023-09-18T07:51:19;20.90;99.90
39021;DHT22;25188;51.958;5.842;2023-09-18T07:53:45;20.90;99.90
39021;DHT22;25188;51.958;5.842;2023-09-18T07:56:11;20.90;99.90
39021;DHT22;25188;51.958;5.842;2023-09-18T07:58:37;21.00;99.90
39021;DHT22;25188;51.958;5.842;2023-09-18T08:01:05;20.90;99.90
39021;DHT22;25188;51.958;5.842;2023-09-18T08:03:31;20.90;99.90
39021;DHT22;25188;51.958;5.842;2023-09-18T08:05:57;21.00;99.90
39021;DHT22;25188;51.958;5.842;2023-09-18T08:08:23;21.00;99.90
39021;DHT22;25188;51.958;5.842;2023-09-18T08:10:51;21.00;99.90
39021;DHT22;25188;51.958;5.842;2023-09-18T08:13:17;21.00;99.90
39021;DHT22;25188;51.958;5.842;2023-09-18T08:15:43;21.00;99.90
39021;DHT22;25188;51.958;5.842;2023-09-18T08:18:10;21.10;99.80
39021;DHT22;25188;51.958;5.842;2023-09-18T08:20:39;21.00;99.50
39021;DHT22;25188;51.958;5.842;2023-09-18T08:23:05;21.00;99.50
39021;DHT22;25188;51.958;5.842;2023-09-18T08:25:31;21.00;99.30
39021;DHT22;25188;51.958;5.842;2023-09-18T08:27:58;21.10;99.30
39021;DHT22;25188;51.958;5.842;2023-09-18T08:30:23;21.10;99.10
39021;DHT22;25188;51.958;5.842;2023-09-18T08:32:49;21.10;99.00
39021;DHT22;25188;51.958;5.842;2023-09-18T08:35:15;21.10;98.90
39021;DHT22;25188;51.958;5.842;2023-09-18T08:37:41;21.10;98.90
39021;DHT22;25188;51.958;5.842;2023-09-18T08:40:11;21.10;98.80
39021;DHT22;25188;51.958;5.842;2023-09-18T08:42:49;21.20;98.80
39021;DHT22;25188;51.958;5.842;2023-09-18T08:45:26;21.30;98.80
39021;DHT22;25188;51.958;5.842;2023-09-18T08:47:54;21.30;98.60
39021;DHT22;25188;51.958;5.842;2023-09-18T08:50:20;21.30;98.40
39021;DHT22;25188;51.958;5.842;2023-09-18T08:52:47;21.40;97.90
39021;DHT22;25188;51.958;5.842;2023-09-18T08:55:14;21.40;97.40
39021;DHT22;25188;51.958;5.842;2023-09-18T08:57:42;21.40;97.50
39021;DHT22;25188;51.958;5.842;2023-09-18T09:00:08;21.40;97.30
39021;DHT22;25188;51.958;5.842;2023-09-18T09:02:37;21.40;97.40
39021;DHT22;25188;51.958;5.842;2023-09-18T09:05:04;21.40;97.40
39021;DHT22;25188;51.958;5.842;2023-09-18T09:07:30;21.40;97.20
39021;DHT22;25188;51.958;5.842;2023-09-18T09:09:56;21.50;97.10
39021;DHT22;25188;51.958;5.842;2023-09-18T09:12:59;21.50;96.90
39021;DHT22;25188;51.958;5.842;2023-09-18T09:15:32;21.50;96.80
39021;DHT22;25188;51.958;5.842;2023-09-18T09:18:07;21.50;96.50
39021;DHT22;25188;51.958;5.842;2023-09-18T09:20:34;21.40;96.40
39021;DHT22;25188;51.958;5.842;2023-09-18T09:23:01;21.50;96.50
39021;DHT22;25188;51.958;5.842;2023-09-18T09:25:29;21.50;96.50
39021;DHT22;25188;51.958;5.842;2023-09-18T09:27:58;21.50;96.40
39021;DHT22;25188;51.958;5.842;2023-09-18T09:30:25;21.70;96.40
39021;DHT22;25188;51.958;5.842;2023-09-18T09:32:53;21.60;96.30
39021;DHT22;25188;51.958;5.842;2023-09-18T09:35:40;21.60;96.10
39021;DHT22;25188;51.958;5.842;2023-09-18T09:38:12;21.60;95.90
39021;DHT22;25188;51.958;5.842;2023-09-18T09:40:42;21.70;95.90
39021;DHT22;25188;51.958;5.842;2023-09-18T09:43:11;21.70;95.70
39021;DHT22;25188;51.958;5.842;2023-09-18T09:45:40;21.70;95.40
39021;DHT22;25188;51.958;5.842;2023-09-18T09:48:06;21.80;95.20
39021;DHT22;25188;51.958;5.842;2023-09-18T09:50:34;21.80;95.10
39021;DHT22;25188;51.958;5.842;2023-09-18T09:53:09;21.80;95.10
39021;DHT22;25188;51.958;5.842;2023-09-18T09:55:35;21.90;95.10
39021;DHT22;25188;51.958;5.842;2023-09-18T09:58:04;22.00;95.10
39021;DHT22;25188;51.958;5.842;2023-09-18T10:00:39;22.20;94.90
39021;DHT22;25188;51.958;5.842;2023-09-18T10:03:12;22.30;94.80
39021;DHT22;25188;51.958;5.842;2023-09-18T10:05:41;22.50;94.70
39021;DHT22;25188;51.958;5.842;2023-09-18T10:08:12;22.70;94.60
39021;DHT22;25188;51.958;5.842;2023-09-18T10:10:45;22.80;94.30
39021;DHT22;25188;51.958;5.842;2023-09-18T10:13:16;23.00;93.90
39021;DHT22;25188;51.958;5.842;2023-09-18T10:15:42;23.10;93.50
39021;DHT22;25188;51.958;5.842;2023-09-18T10:21:12;23.40;93.00
39021;DHT22;25188;51.958;5.842;2023-09-18T10:23:53;23.40;92.50
39021;DHT22;25188;51.958;5.842;2023-09-18T10:26:25;23.40;91.90
39021;DHT22;25188;51.958;5.842;2023-09-18T10:28:55;23.40;91.80
39021;DHT22;25188;51.958;5.842;2023-09-18T10:31:25;23.30;91.70
39021;DHT22;25188;51.958;5.842;2023-09-18T10:33:52;23.40;91.60
39021;DHT22;25188;51.958;5.842;2023-09-18T10:36:19;23.40;91.30
39021;DHT22;25188;51.958;5.842;2023-09-18T10:38:46;23.50;91.10
39021;DHT22;25188;51.958;5.842;2023-09-18T10:41:21;23.40;90.40
39021;DHT22;25188;51.958;5.842;2023-09-18T10:43:51;23.40;90.30
39021;DHT22;25188;51.958;5.842;2023-09-18T10:46:18;23.40;90.10
39021;DHT22;25188;51.958;5.842;2023-09-18T10:48:45;23.40;90.10
39021;DHT22;25188;51.958;5.842;2023-09-18T10:51:12;23.40;89.80
39021;DHT22;25188;51.958;5.842;2023-09-18T10:53:40;23.30;89.40
39021;DHT22;25188;51.958;5.842;2023-09-18T10:56:05;23.30;89.00
39021;DHT22;25188;51.958;5.842;2023-09-18T10:58:32;23.30;89.00
39021;DHT22;25188;51.958;5.842;2023-09-18T11:01:02;23.20;88.50
39021;DHT22;25188;51.958;5.842;2023-09-18T11:03:27;23.10;88.50
39021;DHT22;25188;51.958;5.842;2023-09-18T11:06:07;23.00;88.30
39021;DHT22;25188;51.958;5.842;2023-09-18T11:08:47;22.90;88.40
39021;DHT22;25188;51.958;5.842;2023-09-18T11:11:16;23.00;88.30
39021;DHT22;25188;51.958;5.842;2023-09-18T11:13:46;23.10;88.60
39021;DHT22;25188;51.958;5.842;2023-09-18T11:16:37;23.10;88.60
39021;DHT22;25188;51.958;5.842;2023-09-18T11:21:32;23.20;87.70
39021;DHT22;25188;51.958;5.842;2023-09-18T11:24:02;23.10;87.60
39021;DHT22;25188;51.958;5.842;2023-09-18T11:26:33;23.10;87.40
39021;DHT22;25188;51.958;5.842;2023-09-18T11:29:00;23.00;87.10
39021;DHT22;25188;51.958;5.842;2023-09-18T11:31:47;23.00;87.30
39021;DHT22;25188;51.958;5.842;2023-09-18T11:34:23;23.00;87.30
39021;DHT22;25188;51.958;5.842;2023-09-18T11:36:52;22.90;87.00
39021;DHT22;25188;51.958;5.842;2023-09-18T11:39:34;22.90;86.90
39021;DHT22;25188;51.958;5.842;2023-09-18T11:42:21;22.90;87.20
39021;DHT22;25188;51.958;5.842;2023-09-18T11:44:52;22.80;87.10
39021;DHT22;25188;51.958;5.842;2023-09-18T11:47:20;22.80;87.30
39021;DHT22;25188;51.958;5.842;2023-09-18T11:49:53;22.90;87.70
39021;DHT22;25188;51.958;5.842;2023-09-18T11:52:22;23.00;88.40
39021;DHT22;25188;51.958;5.842;2023-09-18T11:54:48;23.50;88.20
39021;DHT22;25188;51.958;5.842;2023-09-18T11:57:14;23.90;87.70
39021;DHT22;25188;51.958;5.842;2023-09-18T11:59:41;24.20;86.00
39021;DHT22;25188;51.958;5.842;2023-09-18T12:02:09;24.40;85.40
39021;DHT22;25188;51.958;5.842;2023-09-18T12:04:35;24.60;84.80
39021;DHT22;25188;51.958;5.842;2023-09-18T12:07:03;24.90;83.70
39021;DHT22;25188;51.958;5.842;2023-09-18T12:09:35;25.00;82.90
39021;DHT22;25188;51.958;5.842;2023-09-18T12:12:04;25.10;82.10
39021;DHT22;25188;51.958;5.842;2023-09-18T12:14:34;25.30;81.20
39021;DHT22;25188;51.958;5.842;2023-09-18T12:17:00;25.30;79.40
39021;DHT22;25188;51.958;5.842;2023-09-18T12:19:27;25.40;79.10
39021;DHT22;25188;51.958;5.842;2023-09-18T12:21:52;25.70;79.00
39021;DHT22;25188;51.958;5.842;2023-09-18T12:24:27;26.10;78.10
39021;DHT22;25188;51.958;5.842;2023-09-18T12:26:53;26.50;76.30
39021;DHT22;25188;51.958;5.842;2023-09-18T12:29:20;26.70;76.00
39021;DHT22;25188;51.958;5.842;2023-09-18T12:31:46;27.10;75.50
39021;DHT22;25188;51.958;5.842;2023-09-18T12:34:18;27.40;74.50
39021;DHT22;25188;51.958;5.842;2023-09-18T12:36:47;27.70;73.20
39021;DHT22;25188;51.958;5.842;2023-09-18T12:39:13;28.00;73.30
39021;DHT22;25188;51.958;5.842;2023-09-18T12:41:43;28.10;71.80
39021;DHT22;25188;51.958;5.842;2023-09-18T12:44:09;28.40;71.20
39021;DHT22;25188;51.958;5.842;2023-09-18T12:46:36;28.60;69.80
39021;DHT22;25188;51.958;5.842;2023-09-18T12:49:22;28.70;68.40
39021;DHT22;25188;51.958;5.842;2023-09-18T12:52:08;28.80;67.30
39021;DHT22;25188;51.958;5.842;2023-09-18T12:54:40;29.00;66.10
39021;DHT22;25188;51.958;5.842;2023-09-18T12:57:06;29.10;66.40
39021;DHT22;25188;51.958;5.842;2023-09-18T12:59:33;29.40;66.30
39021;DHT22;25188;51.958;5.842;2023-09-18T13:02:04;29.50;64.90
39021;DHT22;25188;51.958;5.842;2023-09-18T13:04:34;29.70;64.30
39021;DHT22;25188;51.958;5.842;2023-09-18T13:07:10;30.00;63.20
39021;DHT22;25188;51.958;5.842;2023-09-18T13:09:36;30.00;61.70
39021;DHT22;25188;51.958;5.842;2023-09-18T13:12:03;30.10;61.70
39021;DHT22;25188;51.958;5.842;2023-09-18T13:14:29;30.10;61.10
39021;DHT22;25188;51.958;5.842;2023-09-18T13:17:00;30.20;60.90
39021;DHT22;25188;51.958;5.842;2023-09-18T13:19:29;30.40;60.60
39021;DHT22;25188;51.958;5.842;2023-09-18T13:21:55;30.50;60.40
39021;DHT22;25188;51.958;5.842;2023-09-18T13:24:31;30.60;60.00
39021;DHT22;25188;51.958;5.842;2023-09-18T13:26:57;30.80;59.80
39021;DHT22;25188;51.958;5.842;2023-09-18T13:29:24;31.00;59.80
39021;DHT22;25188;51.958;5.842;2023-09-18T13:31:50;31.10;58.80
39021;DHT22;25188;51.958;5.842;2023-09-18T13:34:16;31.00;58.50
39021;DHT22;25188;51.958;5.842;2023-09-18T13:36:45;30.90;58.40
39021;DHT22;25188;51.958;5.842;2023-09-18T13:39:12;30.80;58.50
39021;DHT22;25188;51.958;5.842;2023-09-18T13:41:39;30.50;58.10
39021;DHT22;25188;51.958;5.842;2023-09-18T13:44:06;30.40;58.60
39021;DHT22;25188;51.958;5.842;2023-09-18T13:46:32;30.60;58.50
39021;DHT22;25188;51.958;5.842;2023-09-18T13:49:02;30.80;57.90
39021;DHT22;25188;51.958;5.842;2023-09-18T13:51:28;31.00;57.60
39021;DHT22;25188;51.958;5.842;2023-09-18T13:53:54;31.10;57.60
39021;DHT22;25188;51.958;5.842;2023-09-18T13:56:21;31.10;57.30
39021;DHT22;25188;51.958;5.842;2023-09-18T13:58:47;31.00;57.50
39021;DHT22;25188;51.958;5.842;2023-09-18T14:01:13;31.20;57.60
39021;DHT22;25188;51.958;5.842;2023-09-18T14:03:40;31.50;57.30
39021;DHT22;25188;51.958;5.842;2023-09-18T14:06:07;31.60;55.90
39021;DHT22;25188;51.958;5.842;2023-09-18T14:08:34;31.70;55.60
39021;DHT22;25188;51.958;5.842;2023-09-18T14:11:00;31.80;55.20
39021;DHT22;25188;51.958;5.842;2023-09-18T14:13:25;31.80;54.00
39021;DHT22;25188;51.958;5.842;2023-09-18T14:15:51;31.70;53.70
39021;DHT22;25188;51.958;5.842;2023-09-18T14:18:16;31.80;53.80
39021;DHT22;25188;51.958;5.842;2023-09-18T14:20:42;31.90;53.90
39021;DHT22;25188;51.958;5.842;2023-09-18T14:23:07;32.00;53.30
39021;DHT22;25188;51.958;5.842;2023-09-18T14:25:33;32.10;53.50
39021;DHT22;25188;51.958;5.842;2023-09-18T14:27:59;32.00;53.70
39021;DHT22;25188;51.958;5.842;2023-09-18T14:30:24;31.90;53.90
39021;DHT22;25188;51.958;5.842;2023-09-18T14:32:55;31.80;53.80
39021;DHT22;25188;51.958;5.842;2023-09-18T14:35:20;31.90;53.50
39021;DHT22;25188;51.958;5.842;2023-09-18T14:37:46;31.80;53.30
39021;DHT22;25188;51.958;5.842;2023-09-18T14:40:12;31.60;52.90
39021;DHT22;25188;51.958;5.842;2023-09-18T14:42:37;31.40;53.10
39021;DHT22;25188;51.958;5.842;2023-09-18T14:45:03;31.30;53.30
39021;DHT22;25188;51.958;5.842;2023-09-18T14:47:29;31.10;53.20
39021;DHT22;25188;51.958;5.842;2023-09-18T14:49:55;30.90;53.10
39021;DHT22;25188;51.958;5.842;2023-09-18T14:52:20;30.50;53.50
39021;DHT22;25188;51.958;5.842;2023-09-18T14:54:49;30.30;54.00
39021;DHT22;25188;51.958;5.842;2023-09-18T14:57:14;30.00;53.80
39021;DHT22;25188;51.958;5.842;2023-09-18T14:59:40;29.60;53.80
39021;DHT22;25188;51.958;5.842;2023-09-18T15:02:07;29.20;54.60
39021;DHT22;25188;51.958;5.842;2023-09-18T15:04:33;28.90;54.70
39021;DHT22;25188;51.958;5.842;2023-09-18T15:06:59;28.50;55.50
39021;DHT22;25188;51.958;5.842;2023-09-18T15:09:25;28.30;56.00
39021;DHT22;25188;51.958;5.842;2023-09-18T15:11:51;28.10;56.20
39021;DHT22;25188;51.958;5.842;2023-09-18T15:14:16;27.80;56.40
39021;DHT22;25188;51.958;5.842;2023-09-18T15:16:42;27.60;56.80
39021;DHT22;25188;51.958;5.842;2023-09-18T15:19:07;27.40;57.10
39021;DHT22;25188;51.958;5.842;2023-09-18T15:21:33;27.20;57.50
39021;DHT22;25188;51.958;5.842;2023-09-18T15:23:59;26.90;57.80
39021;DHT22;25188;51.958;5.842;2023-09-18T15:26:25;26.90;58.20
39021;DHT22;25188;51.958;5.842;2023-09-18T15:28:50;26.70;58.50
39021;DHT22;25188;51.958;5.842;2023-09-18T15:31:16;26.60;58.70
39021;DHT22;25188;51.958;5.842;2023-09-18T15:33:42;26.50;58.70
39021;DHT22;25188;51.958;5.842;2023-09-18T15:36:09;26.20;58.90
39021;DHT22;25188;51.958;5.842;2023-09-18T15:38:35;26.10;59.40